sensor_id;sensor_type;location;lat;lon;timestamp;P1;durP1;ratioP1;P2;durP2;ratioP2
20000;SDS011;10161;41.188;-8.642;2023-10-31T00:02:11;3.00;;;2.70;;
20000;SDS011;10161;41.188;-8.642;2023-10-31T00:04:39;2.50;;;2.10;;
20000;SDS011;10161;41.188;-8.642;2023-10-31T00:07:06;2.70;;;2.40;;
20000;SDS011;10161;41.188;-8.642;2023-10-31T00:09:33;2.60;;;2.33;;
20000;SDS011;10161;41.188;-8.642;2023-10-31T00:12:00;2.60;;;2.13;;
20000;SDS011;10161;41.188;-8.642;2023-10-31T00:14:28;2.47;;;2.27;;
20000;SDS011;10161;41.188;-8.642;2023-10-31T00:16:55;2.80;;;2.30;;
20000;SDS011;10161;41.188;-8.642;2023-10-31T00:19:22;2.30;;;2.10;;
20000;SDS011;10161;41.188;-8.642;2023-10-31T00:21:49;2.40;;;2.20;;
20000;SDS011;10161;41.188;-8.642;2023-10-31T00:24:16;2.60;;;2.40;;
20000;SDS011;10161;41.188;-8.642;2023-10-31T00:26:43;2.47;;;2.27;;
20000;SDS011;10161;41.188;-8.642;2023-10-31T00:29:10;3.67;;;2.60;;
20000;SDS011;10161;41.188;-8.642;2023-10-31T00:31:38;2.40;;;2.20;;
20000;SDS011;10161;41.188;-8.642;2023-10-31T00:34:06;2.63;;;2.17;;
20000;SDS011;10161;41.188;-8.642;2023-10-31T00:36:33;3.17;;;2.47;;
20000;SDS011;10161;41.188;-8.642;2023-10-31T00:39:00;2.50;;;2.20;;
20000;SDS011;10161;41.188;-8.642;2023-10-31T00:41:27;2.40;;;2.00;;
20000;SDS011;10161;41.188;-8.642;2023-10-31T00:43:54;2.50;;;2.27;;
20000;SDS011;10161;41.188;-8.642;2023-10-31T00:46:21;2.60;;;2.10;;
20000;SDS011;10161;41.188;-8.642;2023-10-31T00:48:49;2.73;;;2.30;;
20000;SDS011;10161;41.188;-8.642;2023-10-31T00:51:16;2.93;;;2.63;;
20000;SDS011;10161;41.188;-8.642;2023-10-31T00:53:43;2.47;;;2.10;;
20000;SDS011;10161;41.188;-8.642;2023-10-31T00:56:10;2.30;;;2.10;;
20000;SDS011;10161;41.188;-8.642;2023-10-31T00:58:37;2.20;;;2.00;;
20000;SDS011;10161;41.188;-8.642;2023-10-31T01:01:04;2.77;;;2.20;;
20000;SDS011;10161;41.188;-8.642;2023-10-31T01:03:31;2.67;;;2.20;;
20000;SDS011;10161;41.188;-8.642;2023-10-31T01:05:59;2.27;;;2.00;;
20000;SDS011;10161;41.188;-8.642;2023-10-31T01:08:26;4.83;;;2.40;;
20000;SDS011;10161;41.188;-8.642;2023-10-31T01:10:53;3.20;;;2.53;;
20000;SDS011;10161;41.188;-8.642;2023-10-31T01:13:20;2.17;;;1.90;;
20000;SDS011;10161;41.188;-8.642;2023-10-31T01:15:47;2.43;;;2.17;;
20000;SDS011;10161;41.188;-8.642;2023-10-31T01:18:14;2.20;;;2.00;;
20000;SDS011;10161;41.188;-8.642;2023-10-31T01:20:41;2.03;;;1.90;;
20000;SDS011;10161;41.188;-8.642;2023-10-31T01:23:09;2.40;;;2.20;;
20000;SDS011;10161;41.188;-8.642;2023-10-31T01:25:36;2.43;;;2.10;;
20000;SDS011;10161;41.188;-8.642;2023-10-31T01:28:03;2.73;;;2.20;;
20000;SDS011;10161;41.188;-8.642;2023-10-31T01:30:30;3.30;;;2.70;;
20000;SDS011;10161;41.188;-8.642;2023-10-31T01:32:57;2.67;;;2.30;;
20000;SDS011;10161;41.188;-8.642;2023-10-31T01:35:24;3.20;;;2.30;;
20000;SDS011;10161;41.188;-8.642;2023-10-31T01:37:51;2.67;;;2.37;;
20000;SDS011;10161;41.188;-8.642;2023-10-31T01:40:19;2.70;;;2.30;;
20000;SDS011;10161;41.188;-8.642;2023-10-31T01:42:46;2.60;;;2.00;;
20000;SDS011;10161;41.188;-8.642;2023-10-31T01:45:12;2.47;;;2.27;;
20000;SDS011;10161;41.188;-8.642;2023-10-31T01:47:39;3.10;;;2.20;;
20000;SDS011;10161;41.188;-8.642;2023-10-31T01:50:06;3.43;;;2.10;;
20000;SDS011;10161;41.188;-8.642;2023-10-31T01:52:35;3.40;;;1.97;;
20000;SDS011;10161;41.188;-8.642;2023-10-31T01:55:02;3.07;;;2.10;;
20000;SDS011;10161;41.188;-8.642;2023-10-31T01:57:31;3.50;;;2.40;;
20000;SDS011;10161;41.188;-8.642;2023-10-31T01:59:58;3.13;;;2.30;;
20000;SDS011;10161;41.188;-8.642;2023-10-31T02:02:25;2.47;;;2.27;;
20000;SDS011;10161;41.188;-8.642;2023-10-31T02:04:53;2.93;;;1.90;;
20000;SDS011;10161;41.188;-8.642;2023-10-31T02:07:20;2.37;;;2.17;;
20000;SDS011;10161;41.188;-8.642;2023-10-31T02:09:47;2.67;;;2.30;;
20000;SDS011;10161;41.188;-8.642;2023-10-31T02:15:00;2.37;;;2.17;;
20000;SDS011;10161;41.188;-8.642;2023-10-31T02:17:27;2.90;;;2.20;;
20000;SDS011;10161;41.188;-8.642;2023-10-31T02:19:54;4.30;;;2.20;;
20000;SDS011;10161;41.188;-8.642;2023-10-31T02:22:23;2.37;;;2.17;;
20000;SDS011;10161;41.188;-8.642;2023-10-31T02:24:49;2.20;;;1.80;;
20000;SDS011;10161;41.188;-8.642;2023-10-31T02:27:16;3.00;;;2.53;;
20000;SDS011;10161;41.188;-8.642;2023-10-31T02:29:43;2.40;;;2.13;;
20000;SDS011;10161;41.188;-8.642;2023-10-31T02:32:10;2.13;;;1.90;;
20000;SDS011;10161;41.188;-8.642;2023-10-31T02:34:37;2.57;;;2.37;;
20000;SDS011;10161;41.188;-8.642;2023-10-31T02:37:04;2.30;;;2.10;;
20000;SDS011;10161;41.188;-8.642;2023-10-31T02:39:33;3.10;;;2.40;;
20000;SDS011;10161;41.188;-8.642;2023-10-31T02:42:00;2.93;;;2.07;;
20000;SDS011;10161;41.188;-8.642;2023-10-31T02:44:27;2.57;;;2.10;;
20000;SDS011;10161;41.188;-8.642;2023-10-31T02:46:54;2.30;;;2.10;;
20000;SDS011;10161;41.188;-8.642;2023-10-31T02:49:21;2.80;;;1.80;;
20000;SDS011;10161;41.188;-8.642;2023-10-31T02:51:48;3.53;;;2.53;;
20000;SDS011;10161;41.188;-8.642;2023-10-31T02:54:15;2.37;;;2.00;;
20000;SDS011;10161;41.188;-8.642;2023-10-31T02:56:44;2.13;;;1.93;;
20000;SDS011;10161;41.188;-8.642;2023-10-31T02:59:11;1.87;;;1.77;;
20000;SDS011;10161;41.188;-8.642;2023-10-31T03:01:38;2.30;;;2.10;;
20000;SDS011;10161;41.188;-8.642;2023-10-31T03:04:05;2.40;;;1.90;;
20000;SDS011;10161;41.188;-8.642;2023-10-31T03:06:32;2.40;;;2.20;;
20000;SDS011;10161;41.188;-8.642;2023-10-31T03:08:59;2.20;;;1.90;;
20000;SDS011;10161;41.188;-8.642;2023-10-31T03:11:26;2.20;;;1.83;;
20000;SDS011;10161;41.188;-8.642;2023-10-31T03:13:55;2.13;;;1.93;;
20000;SDS011;10161;41.188;-8.642;2023-10-31T03:16:22;2.40;;;2.20;;
20000;SDS011;10161;41.188;-8.642;2023-10-31T03:18:49;2.47;;;2.10;;
20000;SDS011;10161;41.188;-8.642;2023-10-31T03:21:16;2.20;;;2.00;;
20000;SDS011;10161;41.188;-8.642;2023-10-31T03:23:46;3.17;;;1.97;;
20000;SDS011;10161;41.188;-8.642;2023-10-31T03:26:14;2.00;;;1.70;;
20000;SDS011;10161;41.188;-8.642;2023-10-31T03:28:42;2.83;;;1.80;;
20000;SDS011;10161;41.188;-8.642;2023-10-31T03:31:10;2.00;;;1.80;;
20000;SDS011;10161;41.188;-8.642;2023-10-31T03:33:37;2.53;;;2.00;;
20000;SDS011;10161;41.188;-8.642;2023-10-31T03:36:04;2.90;;;1.97;;
20000;SDS011;10161;41.188;-8.642;2023-10-31T03:38:31;2.10;;;1.87;;
20000;SDS011;10161;41.188;-8.642;2023-10-31T03:40:58;2.53;;;2.23;;
20000;SDS011;10161;41.188;-8.642;2023-10-31T03:43:25;3.23;;;2.00;;
20000;SDS011;10161;41.188;-8.642;2023-10-31T03:45:52;2.00;;;1.80;;
20000;SDS011;10161;41.188;-8.642;2023-10-31T03:48:21;2.33;;;2.03;;
20000;SDS011;10161;41.188;-8.642;2023-10-31T03:50:48;2.20;;;2.00;;
20000;SDS011;10161;41.188;-8.642;2023-10-31T03:53:16;3.07;;;2.00;;
20000;SDS011;10161;41.188;-8.642;2023-10-31T03:55:43;2.10;;;1.67;;
20000;SDS011;10161;41.188;-8.642;2023-10-31T03:58:10;3.30;;;2.20;;
20000;SDS011;10161;41.188;-8.642;2023-10-31T04:00:38;1.90;;;1.77;;
20000;SDS011;10161;41.188;-8.642;2023-10-31T04:03:05;2.07;;;1.87;;
20000;SDS011;10161;41.188;-8.642;2023-10-31T04:05:34;3.70;;;2.00;;
20000;SDS011;10161;41.188;-8.642;2023-10-31T04:08:01;2.10;;;1.90;;
20000;SDS011;10161;41.188;-8.642;2023-10-31T04:10:28;2.53;;;2.00;;
20000;SDS011;10161;41.188;-8.642;2023-10-31T04:12:55;2.00;;;1.73;;
20000;SDS011;10161;41.188;-8.642;2023-10-31T04:15:22;2.10;;;1.97;;
20000;SDS011;10161;41.188;-8.642;2023-10-31T04:17:49;2.00;;;1.80;;
20000;SDS011;10161;41.188;-8.642;2023-10-31T04:20:15;2.00;;;1.80;;
20000;SDS011;10161;41.188;-8.642;2023-10-31T04:22:44;2.00;;;1.80;;
20000;SDS011;10161;41.188;-8.642;2023-10-31T04:25:11;2.07;;;1.80;;
20000;SDS011;10161;41.188;-8.642;2023-10-31T04:27:38;2.40;;;1.93;;
20000;SDS011;10161;41.188;-8.642;2023-10-31T04:30:05;2.67;;;2.00;;
20000;SDS011;10161;41.188;-8.642;2023-10-31T04:32:33;3.90;;;1.87;;
20000;SDS011;10161;41.188;-8.642;2023-10-31T04:35:00;2.03;;;1.80;;
20000;SDS011;10161;41.188;-8.642;2023-10-31T04:37:27;2.77;;;2.03;;
20000;SDS011;10161;41.188;-8.642;2023-10-31T04:39:55;2.63;;;1.90;;
20000;SDS011;10161;41.188;-8.642;2023-10-31T04:42:22;2.40;;;2.20;;
20000;SDS011;10161;41.188;-8.642;2023-10-31T04:44:49;2.20;;;1.97;;
20000;SDS011;10161;41.188;-8.642;2023-10-31T04:47:16;2.60;;;2.30;;
20000;SDS011;10161;41.188;-8.642;2023-10-31T04:49:43;2.70;;;2.07;;
20000;SDS011;10161;41.188;-8.642;2023-10-31T04:52:10;2.40;;;2.20;;
20000;SDS011;10161;41.188;-8.642;2023-10-31T04:54:37;1.80;;;1.70;;
20000;SDS011;10161;41.188;-8.642;2023-10-31T04:57:05;1.90;;;1.80;;
20000;SDS011;10161;41.188;-8.642;2023-10-31T04:59:33;2.07;;;1.87;;
20000;SDS011;10161;41.188;-8.642;2023-10-31T05:01:59;1.77;;;1.67;;
20000;SDS011;10161;41.188;-8.642;2023-10-31T05:04:26;2.00;;;1.80;;
20000;SDS011;10161;41.188;-8.642;2023-10-31T05:06:54;2.03;;;1.60;;
20000;SDS011;10161;41.188;-8.642;2023-10-31T05:09:21;2.03;;;1.87;;
20000;SDS011;10161;41.188;-8.642;2023-10-31T05:11:48;2.00;;;1.80;;
20000;SDS011;10161;41.188;-8.642;2023-10-31T05:14:17;1.90;;;1.80;;
20000;SDS011;10161;41.188;-8.642;2023-10-31T05:16:44;2.43;;;1.73;;
20000;SDS011;10161;41.188;-8.642;2023-10-31T05:19:11;2.13;;;1.93;;
20000;SDS011;10161;41.188;-8.642;2023-10-31T05:21:38;1.73;;;1.60;;
20000;SDS011;10161;41.188;-8.642;2023-10-31T05:24:05;2.13;;;1.77;;
20000;SDS011;10161;41.188;-8.642;2023-10-31T05:26:33;2.37;;;2.13;;
20000;SDS011;10161;41.188;-8.642;2023-10-31T05:29:00;1.70;;;1.60;;
20000;SDS011;10161;41.188;-8.642;2023-10-31T05:31:28;1.70;;;1.60;;
20000;SDS011;10161;41.188;-8.642;2023-10-31T05:33:56;2.00;;;1.90;;
20000;SDS011;10161;41.188;-8.642;2023-10-31T05:36:25;1.87;;;1.77;;
20000;SDS011;10161;41.188;-8.642;2023-10-31T05:38:53;1.87;;;1.50;;
20000;SDS011;10161;41.188;-8.642;2023-10-31T05:41:20;2.00;;;1.83;;
20000;SDS011;10161;41.188;-8.642;2023-10-31T05:43:47;3.00;;;1.57;;
20000;SDS011;10161;41.188;-8.642;2023-10-31T05:46:14;1.60;;;1.50;;
20000;SDS011;10161;41.188;-8.642;2023-10-31T05:48:42;1.97;;;1.77;;
20000;SDS011;10161;41.188;-8.642;2023-10-31T05:51:11;1.70;;;1.60;;
20000;SDS011;10161;41.188;-8.642;2023-10-31T05:53:39;2.40;;;1.67;;
20000;SDS011;10161;41.188;-8.642;2023-10-31T05:56:07;2.20;;;1.90;;
20000;SDS011;10161;41.188;-8.642;2023-10-31T05:58:36;1.47;;;1.37;;
20000;SDS011;10161;41.188;-8.642;2023-10-31T06:01:03;1.97;;;1.73;;
20000;SDS011;10161;41.188;-8.642;2023-10-31T06:03:30;2.03;;;1.83;;
20000;SDS011;10161;41.188;-8.642;2023-10-31T06:05:59;2.03;;;1.73;;
20000;SDS011;10161;41.188;-8.642;2023-10-31T06:08:26;2.10;;;1.80;;
20000;SDS011;10161;41.188;-8.642;2023-10-31T06:10:54;1.60;;;1.50;;
20000;SDS011;10161;41.188;-8.642;2023-10-31T06:13:21;1.77;;;1.67;;
20000;SDS011;10161;41.188;-8.642;2023-10-31T06:15:48;2.00;;;1.70;;
20000;SDS011;10161;41.188;-8.642;2023-10-31T06:18:15;2.10;;;1.70;;
20000;SDS011;10161;41.188;-8.642;2023-10-31T06:20:42;1.80;;;1.70;;
20000;SDS011;10161;41.188;-8.642;2023-10-31T06:23:10;2.17;;;1.60;;
20000;SDS011;10161;41.188;-8.642;2023-10-31T06:25:37;2.03;;;1.83;;
20000;SDS011;10161;41.188;-8.642;2023-10-31T06:28:04;2.37;;;2.00;;
20000;SDS011;10161;41.188;-8.642;2023-10-31T06:30:31;2.40;;;1.97;;
20000;SDS011;10161;41.188;-8.642;2023-10-31T06:32:58;2.80;;;2.00;;
20000;SDS011;10161;41.188;-8.642;2023-10-31T06:35:25;1.80;;;1.47;;
20000;SDS011;10161;41.188;-8.642;2023-10-31T06:37:54;1.80;;;1.60;;
20000;SDS011;10161;41.188;-8.642;2023-10-31T06:40:24;2.00;;;1.87;;
20000;SDS011;10161;41.188;-8.642;2023-10-31T06:42:51;1.90;;;1.80;;
20000;SDS011;10161;41.188;-8.642;2023-10-31T06:45:18;2.37;;;1.80;;
20000;SDS011;10161;41.188;-8.642;2023-10-31T06:47:45;1.90;;;1.80;;
20000;SDS011;10161;41.188;-8.642;2023-10-31T06:50:12;2.80;;;1.90;;
20000;SDS011;10161;41.188;-8.642;2023-10-31T06:52:39;2.67;;;2.20;;
20000;SDS011;10161;41.188;-8.642;2023-10-31T06:55:06;1.80;;;1.50;;
20000;SDS011;10161;41.188;-8.642;2023-10-31T06:57:35;2.50;;;2.30;;
20000;SDS011;10161;41.188;-8.642;2023-10-31T07:00:02;3.23;;;2.40;;
20000;SDS011;10161;41.188;-8.642;2023-10-31T07:02:33;2.70;;;2.40;;
20000;SDS011;10161;41.188;-8.642;2023-10-31T07:05:00;2.83;;;2.30;;
20000;SDS011;10161;41.188;-8.642;2023-10-31T07:07:28;2.53;;;2.33;;
20000;SDS011;10161;41.188;-8.642;2023-10-31T07:09:55;2.77;;;2.57;;
20000;SDS011;10161;41.188;-8.642;2023-10-31T07:12:22;3.43;;;2.50;;
20000;SDS011;10161;41.188;-8.642;2023-10-31T07:14:50;3.50;;;3.20;;
20000;SDS011;10161;41.188;-8.642;2023-10-31T07:17:18;3.13;;;2.83;;
20000;SDS011;10161;41.188;-8.642;2023-10-31T07:19:45;3.27;;;3.00;;
20000;SDS011;10161;41.188;-8.642;2023-10-31T07:22:12;3.40;;;3.07;;
20000;SDS011;10161;41.188;-8.642;2023-10-31T07:24:39;3.10;;;2.90;;
20000;SDS011;10161;41.188;-8.642;2023-10-31T07:27:06;2.87;;;2.57;;
20000;SDS011;10161;41.188;-8.642;2023-10-31T07:29:33;2.90;;;2.60;;
20000;SDS011;10161;41.188;-8.642;2023-10-31T07:32:01;3.30;;;2.70;;
20000;SDS011;10161;41.188;-8.642;2023-10-31T07:34:28;3.10;;;2.77;;
20000;SDS011;10161;41.188;-8.642;2023-10-31T07:36:56;3.13;;;2.83;;
20000;SDS011;10161;41.188;-8.642;2023-10-31T07:39:23;3.10;;;2.80;;
20000;SDS011;10161;41.188;-8.642;2023-10-31T07:41:50;6.30;;;2.80;;
20000;SDS011;10161;41.188;-8.642;2023-10-31T07:44:17;3.13;;;2.83;;
20000;SDS011;10161;41.188;-8.642;2023-10-31T07:46:44;2.70;;;2.50;;
20000;SDS011;10161;41.188;-8.642;2023-10-31T07:49:12;3.00;;;2.70;;
20000;SDS011;10161;41.188;-8.642;2023-10-31T07:51:40;3.30;;;3.00;;
20000;SDS011;10161;41.188;-8.642;2023-10-31T07:54:07;3.13;;;2.83;;
20000;SDS011;10161;41.188;-8.642;2023-10-31T07:56:34;3.23;;;2.93;;
20000;SDS011;10161;41.188;-8.642;2023-10-31T07:59:01;3.03;;;2.73;;
20000;SDS011;10161;41.188;-8.642;2023-10-31T08:01:28;3.10;;;2.80;;
20000;SDS011;10161;41.188;-8.642;2023-10-31T08:03:55;4.27;;;3.40;;
20000;SDS011;10161;41.188;-8.642;2023-10-31T08:06:24;3.07;;;2.77;;
20000;SDS011;10161;41.188;-8.642;2023-10-31T08:08:51;3.40;;;2.83;;
20000;SDS011;10161;41.188;-8.642;2023-10-31T08:11:18;2.90;;;2.70;;
20000;SDS011;10161;41.188;-8.642;2023-10-31T08:13:45;4.50;;;3.03;;
20000;SDS011;10161;41.188;-8.642;2023-10-31T08:16:16;4.37;;;3.57;;
20000;SDS011;10161;41.188;-8.642;2023-10-31T08:18:43;3.40;;;3.10;;
20000;SDS011;10161;41.188;-8.642;2023-10-31T08:21:11;3.40;;;3.10;;
20000;SDS011;10161;41.188;-8.642;2023-10-31T08:23:39;3.33;;;3.03;;
20000;SDS011;10161;41.188;-8.642;2023-10-31T08:26:09;3.57;;;2.77;;
20000;SDS011;10161;41.188;-8.642;2023-10-31T08:28:36;4.13;;;3.10;;
20000;SDS011;10161;41.188;-8.642;2023-10-31T08:31:03;3.77;;;2.60;;
20000;SDS011;10161;41.188;-8.642;2023-10-31T08:33:30;3.43;;;3.07;;
20000;SDS011;10161;41.188;-8.642;2023-10-31T08:35:58;3.53;;;3.23;;
20000;SDS011;10161;41.188;-8.642;2023-10-31T08:38:26;4.23;;;3.30;;
20000;SDS011;10161;41.188;-8.642;2023-10-31T08:40:55;2.77;;;2.57;;
20000;SDS011;10161;41.188;-8.642;2023-10-31T08:43:22;3.50;;;3.07;;
20000;SDS011;10161;41.188;-8.642;2023-10-31T08:45:48;4.27;;;3.30;;
20000;SDS011;10161;41.188;-8.642;2023-10-31T08:48:15;5.53;;;3.90;;
20000;SDS011;10161;41.188;-8.642;2023-10-31T08:50:42;6.13;;;3.90;;
20000;SDS011;10161;41.188;-8.642;2023-10-31T08:53:09;6.17;;;3.80;;
20000;SDS011;10161;41.188;-8.642;2023-10-31T08:55:36;4.20;;;3.00;;
20000;SDS011;10161;41.188;-8.642;2023-10-31T08:58:04;7.80;;;3.60;;
20000;SDS011;10161;41.188;-8.642;2023-10-31T09:00:31;5.37;;;3.67;;
20000;SDS011;10161;41.188;-8.642;2023-10-31T09:02:58;4.70;;;3.20;;
20000;SDS011;10161;41.188;-8.642;2023-10-31T09:05:25;3.43;;;3.13;;
20000;SDS011;10161;41.188;-8.642;2023-10-31T09:07:52;3.90;;;3.30;;
20000;SDS011;10161;41.188;-8.642;2023-10-31T09:10:19;3.73;;;2.73;;
20000;SDS011;10161;41.188;-8.642;2023-10-31T09:12:46;3.60;;;3.07;;
20000;SDS011;10161;41.188;-8.642;2023-10-31T09:15:15;2.73;;;2.43;;
20000;SDS011;10161;41.188;-8.642;2023-10-31T09:17:41;3.10;;;2.80;;
20000;SDS011;10161;41.188;-8.642;2023-10-31T09:20:09;3.43;;;3.00;;
20000;SDS011;10161;41.188;-8.642;2023-10-31T09:22:36;3.30;;;2.93;;
20000;SDS011;10161;41.188;-8.642;2023-10-31T09:25:03;3.93;;;3.40;;
20000;SDS011;10161;41.188;-8.642;2023-10-31T09:27:31;3.00;;;2.70;;
20000;SDS011;10161;41.188;-8.642;2023-10-31T09:29:57;3.57;;;3.20;;
20000;SDS011;10161;41.188;-8.642;2023-10-31T09:32:26;3.53;;;2.93;;
20000;SDS011;10161;41.188;-8.642;2023-10-31T09:34:53;6.00;;;3.00;;
20000;SDS011;10161;41.188;-8.642;2023-10-31T09:37:20;3.10;;;2.60;;
20000;SDS011;10161;41.188;-8.642;2023-10-31T09:39:47;3.53;;;2.90;;
20000;SDS011;10161;41.188;-8.642;2023-10-31T09:42:14;4.40;;;2.90;;
20000;SDS011;10161;41.188;-8.642;2023-10-31T09:44:41;4.00;;;2.80;;
20000;SDS011;10161;41.188;-8.642;2023-10-31T09:47:08;4.23;;;3.10;;
20000;SDS011;10161;41.188;-8.642;2023-10-31T09:49:36;3.07;;;2.60;;
20000;SDS011;10161;41.188;-8.642;2023-10-31T09:52:03;3.33;;;2.90;;
20000;SDS011;10161;41.188;-8.642;2023-10-31T09:54:32;4.43;;;2.67;;
20000;SDS011;10161;41.188;-8.642;2023-10-31T09:57:00;3.80;;;2.53;;
20000;SDS011;10161;41.188;-8.642;2023-10-31T09:59:27;3.23;;;2.57;;
20000;SDS011;10161;41.188;-8.642;2023-10-31T10:01:54;3.23;;;2.50;;
20000;SDS011;10161;41.188;-8.642;2023-10-31T10:04:21;2.30;;;2.07;;
20000;SDS011;10161;41.188;-8.642;2023-10-31T10:06:53;3.33;;;2.50;;
20000;SDS011;10161;41.188;-8.642;2023-10-31T10:09:26;3.10;;;2.43;;
20000;SDS011;10161;41.188;-8.642;2023-10-31T10:11:53;2.83;;;2.50;;
20000;SDS011;10161;41.188;-8.642;2023-10-31T10:14:22;2.53;;;2.33;;
20000;SDS011;10161;41.188;-8.642;2023-10-31T10:16:50;2.80;;;2.60;;
20000;SDS011;10161;41.188;-8.642;2023-10-31T10:19:17;2.80;;;2.60;;
20000;SDS011;10161;41.188;-8.642;2023-10-31T10:21:46;4.47;;;2.90;;
20000;SDS011;10161;41.188;-8.642;2023-10-31T10:24:15;3.53;;;2.90;;
20000;SDS011;10161;41.188;-8.642;2023-10-31T10:26:42;3.13;;;2.70;;
20000;SDS011;10161;41.188;-8.642;2023-10-31T10:29:09;3.13;;;2.57;;
20000;SDS011;10161;41.188;-8.642;2023-10-31T10:31:36;2.60;;;2.27;;
20000;SDS011;10161;41.188;-8.642;2023-10-31T10:34:03;3.17;;;2.50;;
20000;SDS011;10161;41.188;-8.642;2023-10-31T10:36:30;3.27;;;2.60;;
20000;SDS011;10161;41.188;-8.642;2023-10-31T10:38:59;5.20;;;2.83;;
20000;SDS011;10161;41.188;-8.642;2023-10-31T10:41:28;2.80;;;2.50;;
20000;SDS011;10161;41.188;-8.642;2023-10-31T10:43:55;3.10;;;2.67;;
20000;SDS011;10161;41.188;-8.642;2023-10-31T10:48:52;2.90;;;2.60;;
20000;SDS011;10161;41.188;-8.642;2023-10-31T10:51:24;3.03;;;2.60;;
20000;SDS011;10161;41.188;-8.642;2023-10-31T10:53:55;3.30;;;3.00;;
20000;SDS011;10161;41.188;-8.642;2023-10-31T10:56:26;4.03;;;2.83;;
20000;SDS011;10161;41.188;-8.642;2023-10-31T10:58:59;2.70;;;2.40;;
20000;SDS011;10161;41.188;-8.642;2023-10-31T11:01:28;3.57;;;2.47;;
20000;SDS011;10161;41.188;-8.642;2023-10-31T11:03:57;3.13;;;2.40;;
20000;SDS011;10161;41.188;-8.642;2023-10-31T11:06:25;3.13;;;2.53;;
20000;SDS011;10161;41.188;-8.642;2023-10-31T11:08:53;4.63;;;2.70;;
20000;SDS011;10161;41.188;-8.642;2023-10-31T11:11:20;3.47;;;2.83;;
20000;SDS011;10161;41.188;-8.642;2023-10-31T11:13:49;3.17;;;2.73;;
20000;SDS011;10161;41.188;-8.642;2023-10-31T11:16:19;3.50;;;2.90;;
20000;SDS011;10161;41.188;-8.642;2023-10-31T11:18:51;2.47;;;2.27;;
20000;SDS011;10161;41.188;-8.642;2023-10-31T11:21:18;3.23;;;2.77;;
20000;SDS011;10161;41.188;-8.642;2023-10-31T11:23:45;2.93;;;2.63;;
20000;SDS011;10161;41.188;-8.642;2023-10-31T11:26:11;3.13;;;2.50;;
20000;SDS011;10161;41.188;-8.642;2023-10-31T11:28:38;2.70;;;2.33;;
20000;SDS011;10161;41.188;-8.642;2023-10-31T11:31:07;2.87;;;2.60;;
20000;SDS011;10161;41.188;-8.642;2023-10-31T11:33:35;3.07;;;2.37;;
20000;SDS011;10161;41.188;-8.642;2023-10-31T11:36:05;2.80;;;2.50;;
20000;SDS011;10161;41.188;-8.642;2023-10-31T11:38:34;3.17;;;2.83;;
20000;SDS011;10161;41.188;-8.642;2023-10-31T11:41:03;5.10;;;2.40;;
20000;SDS011;10161;41.188;-8.642;2023-10-31T11:46:21;2.87;;;2.57;;
20000;SDS011;10161;41.188;-8.642;2023-10-31T11:48:50;2.50;;;2.30;;
20000;SDS011;10161;41.188;-8.642;2023-10-31T11:51:18;2.50;;;2.07;;
20000;SDS011;10161;41.188;-8.642;2023-10-31T11:53:48;3.90;;;2.43;;
20000;SDS011;10161;41.188;-8.642;2023-10-31T11:56:15;3.03;;;2.57;;
20000;SDS011;10161;41.188;-8.642;2023-10-31T11:58:42;3.63;;;2.23;;
20000;SDS011;10161;41.188;-8.642;2023-10-31T12:01:10;4.37;;;2.43;;
20000;SDS011;10161;41.188;-8.642;2023-10-31T12:03:38;3.90;;;2.70;;
20000;SDS011;10161;41.188;-8.642;2023-10-31T12:06:06;2.57;;;2.20;;
20000;SDS011;10161;41.188;-8.642;2023-10-31T12:08:35;2.47;;;2.20;;
20000;SDS011;10161;41.188;-8.642;2023-10-31T12:11:07;2.40;;;2.20;;
20000;SDS011;10161;41.188;-8.642;2023-10-31T12:13:35;2.80;;;2.50;;
20000;SDS011;10161;41.188;-8.642;2023-10-31T12:16:03;2.33;;;2.10;;
20000;SDS011;10161;41.188;-8.642;2023-10-31T12:18:30;3.73;;;2.37;;
20000;SDS011;10161;41.188;-8.642;2023-10-31T12:21:00;2.30;;;2.00;;
20000;SDS011;10161;41.188;-8.642;2023-10-31T12:23:27;2.43;;;2.20;;
20000;SDS011;10161;41.188;-8.642;2023-10-31T12:25:54;2.40;;;2.20;;
20000;SDS011;10161;41.188;-8.642;2023-10-31T12:28:22;2.30;;;2.00;;
20000;SDS011;10161;41.188;-8.642;2023-10-31T12:30:50;2.50;;;1.97;;
20000;SDS011;10161;41.188;-8.642;2023-10-31T12:33:19;2.30;;;2.00;;
20000;SDS011;10161;41.188;-8.642;2023-10-31T12:35:47;2.83;;;2.60;;
20000;SDS011;10161;41.188;-8.642;2023-10-31T12:38:16;3.10;;;2.37;;
20000;SDS011;10161;41.188;-8.642;2023-10-31T12:40:43;2.10;;;1.90;;
20000;SDS011;10161;41.188;-8.642;2023-10-31T12:43:10;2.30;;;2.10;;
20000;SDS011;10161;41.188;-8.642;2023-10-31T12:45:37;2.40;;;2.20;;
20000;SDS011;10161;41.188;-8.642;2023-10-31T12:48:05;2.53;;;2.10;;
20000;SDS011;10161;41.188;-8.642;2023-10-31T12:50:34;2.60;;;2.20;;
20000;SDS011;10161;41.188;-8.642;2023-10-31T12:53:02;2.63;;;2.20;;
20000;SDS011;10161;41.188;-8.642;2023-10-31T12:55:37;2.77;;;2.20;;
20000;SDS011;10161;41.188;-8.642;2023-10-31T12:58:05;3.13;;;2.10;;
20000;SDS011;10161;41.188;-8.642;2023-10-31T13:00:34;3.67;;;2.33;;
20000;SDS011;10161;41.188;-8.642;2023-10-31T13:03:02;3.80;;;2.40;;
20000;SDS011;10161;41.188;-8.642;2023-10-31T13:05:30;2.30;;;1.73;;
20000;SDS011;10161;41.188;-8.642;2023-10-31T13:07:58;2.23;;;2.03;;
20000;SDS011;10161;41.188;-8.642;2023-10-31T13:10:28;2.23;;;2.03;;
20000;SDS011;10161;41.188;-8.642;2023-10-31T13:12:57;2.50;;;1.80;;
20000;SDS011;10161;41.188;-8.642;2023-10-31T13:15:24;1.80;;;1.70;;
20000;SDS011;10161;41.188;-8.642;2023-10-31T13:17:51;2.07;;;1.90;;
20000;SDS011;10161;41.188;-8.642;2023-10-31T13:20:19;2.70;;;2.13;;
20000;SDS011;10161;41.188;-8.642;2023-10-31T13:22:47;2.53;;;2.33;;
20000;SDS011;10161;41.188;-8.642;2023-10-31T13:25:14;2.60;;;2.20;;
20000;SDS011;10161;41.188;-8.642;2023-10-31T13:27:42;2.50;;;1.80;;
20000;SDS011;10161;41.188;-8.642;2023-10-31T13:30:11;2.50;;;2.10;;
20000;SDS011;10161;41.188;-8.642;2023-10-31T13:32:39;2.83;;;2.00;;
20000;SDS011;10161;41.188;-8.642;2023-10-31T13:35:06;2.53;;;2.20;;
20000;SDS011;10161;41.188;-8.642;2023-10-31T13:37:34;2.53;;;1.93;;
20000;SDS011;10161;41.188;-8.642;2023-10-31T13:40:01;2.20;;;2.00;;
20000;SDS011;10161;41.188;-8.642;2023-10-31T13:42:29;2.50;;;2.10;;
20000;SDS011;10161;41.188;-8.642;2023-10-31T13:44:56;2.30;;;2.03;;
20000;SDS011;10161;41.188;-8.642;2023-10-31T13:47:24;3.00;;;2.07;;
20000;SDS011;10161;41.188;-8.642;2023-10-31T13:49:51;2.53;;;1.90;;
20000;SDS011;10161;41.188;-8.642;2023-10-31T13:52:18;2.70;;;1.80;;
20000;SDS011;10161;41.188;-8.642;2023-10-31T13:54:45;2.00;;;1.73;;
20000;SDS011;10161;41.188;-8.642;2023-10-31T13:57:12;2.37;;;1.90;;
20000;SDS011;10161;41.188;-8.642;2023-10-31T13:59:39;2.20;;;1.87;;
20000;SDS011;10161;41.188;-8.642;2023-10-31T14:02:06;2.20;;;1.93;;
20000;SDS011;10161;41.188;-8.642;2023-10-31T14:04:34;2.30;;;2.00;;
20000;SDS011;10161;41.188;-8.642;2023-10-31T14:07:01;2.90;;;1.90;;
20000;SDS011;10161;41.188;-8.642;2023-10-31T14:09:28;2.43;;;1.90;;
20000;SDS011;10161;41.188;-8.642;2023-10-31T14:11:56;4.07;;;1.93;;
20000;SDS011;10161;41.188;-8.642;2023-10-31T14:14:23;2.40;;;1.83;;
20000;SDS011;10161;41.188;-8.642;2023-10-31T14:16:50;3.50;;;1.90;;
20000;SDS011;10161;41.188;-8.642;2023-10-31T14:19:17;2.17;;;1.60;;
20000;SDS011;10161;41.188;-8.642;2023-10-31T14:21:45;2.37;;;1.90;;
20000;SDS011;10161;41.188;-8.642;2023-10-31T14:24:12;1.70;;;1.60;;
20000;SDS011;10161;41.188;-8.642;2023-10-31T14:26:39;2.87;;;1.83;;
20000;SDS011;10161;41.188;-8.642;2023-10-31T14:29:08;1.97;;;1.50;;
20000;SDS011;10161;41.188;-8.642;2023-10-31T14:31:39;2.47;;;1.40;;
20000;SDS011;10161;41.188;-8.642;2023-10-31T14:34:06;1.80;;;1.53;;
20000;SDS011;10161;41.188;-8.642;2023-10-31T14:36:33;2.07;;;1.70;;
20000;SDS011;10161;41.188;-8.642;2023-10-31T14:39:03;2.27;;;1.93;;
20000;SDS011;10161;41.188;-8.642;2023-10-31T14:41:30;1.60;;;1.50;;
20000;SDS011;10161;41.188;-8.642;2023-10-31T14:43:59;4.07;;;2.27;;